Time;durP1;ratioP1;P1;durP2;ratioP2;P2;SDS_P1;SDS_P2;PMS_P1;PMS_P2;Temp;Humidity;BMP_temperature;BMP_pressure;BME280_temperature;BME280_humidity;BME280_pressure;Samples;Min_cycle;Max_cycle;Signal;HPM_P1;HPM_P2
2023/05/08 00:01:31;;;;;;;24.07;17.73;;;;;;;;;;5054207;28;20373;-45
2023/05/08 00:03:58;;;;;;;25.10;20.97;;;;;;;;;;5054416;28;20449;-46
2023/05/08 00:06:24;;;;;;;26.40;20.10;;;;;;;;;;5054555;28;20437;-46
2023/05/08 00:08:50;;;;;;;21.60;17.40;;;;;;;;;;5054127;28;20413;-46
2023/05/08 00:11:16;;;;;;;23.60;17.70;;;;;;;;;;5054540;28;20457;-47
2023/05/08 00:13:42;;;;;;;29.90;18.03;;;;;;;;;;5051744;28;20465;-47
2023/05/08 00:16:10;;;;;;;27.20;20.97;;;;;;;;;;5053694;28;20908;-48
2023/05/08 00:18:37;;;;;;;28.20;18.27;;;;;;;;;;5053937;28;20401;-47
2023/05/08 00:21:03;;;;;;;27.27;21.07;;;;;;;;;;5053971;28;20424;-45
2023/05/08 00:23:29;;;;;;;27.47;18.90;;;;;;;;;;5054194;28;20455;-45
2023/05/08 00:25:55;;;;;;;26.20;20.10;;;;;;;;;;5053942;28;20417;-47
2023/05/08 00:28:21;;;;;;;24.90;18.70;;;;;;;;;;5050885;28;20449;-48
2023/05/08 00:30:47;;;;;;;27.60;18.73;;;;;;;;;;5053162;28;20405;-48
2023/05/08 00:33:13;;;;;;;29.60;20.20;;;;;;;;;;5052962;28;20457;-48
2023/05/08 00:35:41;;;;;;;25.43;19.43;;;;;;;;;;5052411;28;20378;-48
2023/05/08 00:38:07;;;;;;;25.57;20.27;;;;;;;;;;5051840;28;20405;-49
2023/05/08 00:40:33;;;;;;;26.03;19.20;;;;;;;;;;5051153;28;20456;-47
2023/05/08 00:42:59;;;;;;;29.23;21.60;;;;;;;;;;5052255;28;20446;-46
2023/05/08 00:45:31;;;;;;;28.90;19.97;;;;;;;;;;5051932;27;20410;-48
2023/05/08 00:47:57;;;;;;;31.70;20.00;;;;;;;;;;5052088;28;20487;-47
2023/05/08 00:50:23;;;;;;;29.50;19.80;;;;;;;;;;5051917;28;20468;-46
2023/05/08 00:52:50;;;;;;;26.43;19.70;;;;;;;;;;5050175;28;20947;-44
2023/05/08 00:55:16;;;;;;;30.53;20.60;;;;;;;;;;5050523;28;20400;-45
2023/05/08 00:57:42;;;;;;;33.90;22.40;;;;;;;;;;5049118;28;20493;-46
2023/05/08 01:00:09;;;;;;;27.83;21.97;;;;;;;;;;5050284;28;20813;-44
2023/05/08 01:02:35;;;;;;;35.57;23.20;;;;;;;;;;5049762;28;20402;-45
2023/05/08 01:05:02;;;;;;;28.50;19.63;;;;;;;;;;5049872;28;20432;-44
2023/05/08 01:07:28;;;;;;;32.83;21.90;;;;;;;;;;5050153;28;20376;-44
2023/05/08 01:09:54;;;;;;;27.40;20.73;;;;;;;;;;5050455;28;20823;-44
2023/05/08 01:12:26;;;;;;;25.93;19.63;;;;;;;;;;5050238;27;20475;-45
2023/05/08 01:15:01;;;;;;;29.43;20.50;;;;;;;;;;5050027;28;20457;-45
2023/05/08 01:17:37;;;;;;;26.67;20.30;;;;;;;;;;5050342;28;20413;-44
2023/05/08 01:20:09;;;;;;;29.57;20.70;;;;;;;;;;5050344;28;20472;-44
2023/05/08 01:22:41;;;;;;;30.97;21.03;;;;;;;;;;5050021;28;20401;-44
2023/05/08 01:25:16;;;;;;;31.07;21.40;;;;;;;;;;5050132;28;20431;-44
2023/05/08 01:28:07;;;;;;;24.80;19.10;;;;;;;;;;5050206;28;20925;-44
2023/05/08 01:30:46;;;;;;;25.00;18.53;;;;;;;;;;5048123;28;20433;-44
2023/05/08 01:33:26;;;;;;;27.50;20.43;;;;;;;;;;5049696;28;20481;-45
2023/05/08 01:36:08;;;;;;;30.87;20.17;;;;;;;;;;5050015;28;20485;-44
2023/05/08 01:38:40;;;;;;;30.27;20.80;;;;;;;;;;5049756;28;20495;-44
2023/05/08 01:41:11;;;;;;;22.67;18.50;;;;;;;;;;5049884;28;20372;-44
2023/05/08 01:43:52;;;;;;;31.30;22.47;;;;;;;;;;5049517;28;20428;-45
2023/05/08 01:46:24;;;;;;;29.80;20.43;;;;;;;;;;5049737;28;20414;-45
2023/05/08 01:48:58;;;;;;;25.53;20.00;;;;;;;;;;5049683;28;20400;-46
2023/05/08 01:51:26;;;;;;;27.60;18.80;;;;;;;;;;5049478;28;20764;-44
2023/05/08 01:53:56;;;;;;;30.13;21.63;;;;;;;;;;5049338;28;20981;-44
2023/05/08 01:56:23;;;;;;;29.97;21.30;;;;;;;;;;5049708;28;20492;-45
2023/05/08 01:58:53;;;;;;;33.63;24.50;;;;;;;;;;5047545;28;20402;-44
2023/05/08 02:01:22;;;;;;;32.83;20.03;;;;;;;;;;5049680;28;20382;-45
2023/05/08 02:03:48;;;;;;;26.80;19.37;;;;;;;;;;5048321;28;20515;-44
2023/05/08 02:06:16;;;;;;;33.60;21.00;;;;;;;;;;5049555;28;20414;-44
2023/05/08 02:08:43;;;;;;;31.57;22.30;;;;;;;;;;5049406;28;20810;-44
2023/05/08 02:11:10;;;;;;;45.73;23.90;;;;;;;;;;5049405;28;20416;-44
2023/05/08 02:13:36;;;;;;;27.63;20.30;;;;;;;;;;5048988;28;20468;-44
2023/05/08 02:16:03;;;;;;;28.03;20.40;;;;;;;;;;5049683;28;20390;-44
2023/05/08 02:18:31;;;;;;;28.47;21.20;;;;;;;;;;5049255;28;20400;-44
2023/05/08 02:20:59;;;;;;;26.67;19.53;;;;;;;;;;5049130;28;20492;-44
2023/05/08 02:23:25;;;;;;;25.63;20.40;;;;;;;;;;5046920;28;20974;-44
2023/05/08 02:25:52;;;;;;;29.27;21.53;;;;;;;;;;5064603;28;20697;-44
2023/05/08 02:28:19;;;;;;;30.43;19.77;;;;;;;;;;5058733;28;20833;-45
2023/05/08 02:30:45;;;;;;;29.63;23.23;;;;;;;;;;5053983;28;20464;-45
2023/05/08 02:33:12;;;;;;;30.57;22.40;;;;;;;;;;5054281;28;20475;-44
2023/05/08 02:35:39;;;;;;;26.30;20.77;;;;;;;;;;5057127;28;20403;-44
2023/05/08 02:38:09;;;;;;;27.37;20.00;;;;;;;;;;5057837;28;20466;-44
2023/05/08 02:40:37;;;;;;;29.60;20.17;;;;;;;;;;5051791;28;20916;-45
2023/05/08 02:43:03;;;;;;;31.87;22.37;;;;;;;;;;5061128;28;20500;-45
2023/05/08 02:45:36;;;;;;;29.63;21.33;;;;;;;;;;5058599;28;20420;-44
2023/05/08 02:48:02;;;;;;;26.50;21.07;;;;;;;;;;5054780;28;20417;-45
2023/05/08 02:50:39;;;;;;;27.33;23.27;;;;;;;;;;5055889;28;20425;-44
2023/05/08 02:53:08;;;;;;;28.00;20.57;;;;;;;;;;5058793;28;20600;-44
2023/05/08 02:55:48;;;;;;;29.17;21.73;;;;;;;;;;5060159;28;20401;-46
2023/05/08 02:58:29;;;;;;;23.33;19.43;;;;;;;;;;5048698;28;20400;-45
2023/05/08 03:01:05;;;;;;;28.17;22.33;;;;;;;;;;5053550;28;20426;-45
2023/05/08 03:03:37;;;;;;;28.20;21.53;;;;;;;;;;5058999;28;20584;-44
2023/05/08 03:06:06;;;;;;;28.20;22.93;;;;;;;;;;5061712;28;20451;-44
2023/05/08 03:08:34;;;;;;;28.50;21.27;;;;;;;;;;5060167;28;20424;-44
2023/05/08 03:11:14;;;;;;;29.97;24.53;;;;;;;;;;5066204;28;20411;-45
2023/05/08 03:13:41;;;;;;;27.77;20.57;;;;;;;;;;5063051;28;20547;-46
2023/05/08 03:16:10;;;;;;;27.00;20.63;;;;;;;;;;5058018;28;20762;-44
2023/05/08 03:18:42;;;;;;;27.67;21.17;;;;;;;;;;5062290;28;20915;-45
2023/05/08 03:21:09;;;;;;;25.00;19.40;;;;;;;;;;5062812;27;20434;-44
2023/05/08 03:23:36;;;;;;;24.90;18.53;;;;;;;;;;5062896;28;20449;-45
2023/05/08 03:26:02;;;;;;;28.13;20.63;;;;;;;;;;5061929;27;20397;-44
2023/05/08 03:28:28;;;;;;;25.37;17.87;;;;;;;;;;5062362;28;20414;-44
2023/05/08 03:30:55;;;;;;;24.80;19.30;;;;;;;;;;5057551;27;20909;-44
2023/05/08 03:33:22;;;;;;;26.50;19.80;;;;;;;;;;5061987;28;20846;-44
2023/05/08 03:35:49;;;;;;;27.60;20.03;;;;;;;;;;5063182;28;20419;-46
2023/05/08 03:38:16;;;;;;;29.33;21.70;;;;;;;;;;5061266;28;20997;-44
2023/05/08 03:40:42;;;;;;;31.13;21.07;;;;;;;;;;5060468;28;20476;-44
2023/05/08 03:43:08;;;;;;;29.10;20.60;;;;;;;;;;5062217;28;20776;-44
2023/05/08 03:45:38;;;;;;;28.50;19.80;;;;;;;;;;5054321;28;20417;-44
2023/05/08 03:48:05;;;;;;;30.50;21.73;;;;;;;;;;5060727;28;20500;-44
2023/05/08 03:50:31;;;;;;;30.90;20.53;;;;;;;;;;5059593;28;20419;-44
2023/05/08 03:53:00;;;;;;;35.17;23.37;;;;;;;;;;5065449;28;20465;-44
2023/05/08 03:55:26;;;;;;;32.70;20.57;;;;;;;;;;5060923;28;20985;-44
2023/05/08 03:58:05;;;;;;;28.07;20.40;;;;;;;;;;5057452;28;20470;-46
2023/05/08 04:00:43;;;;;;;31.53;20.03;;;;;;;;;;5057242;28;20431;-44
2023/05/08 04:03:09;;;;;;;28.00;19.93;;;;;;;;;;5061089;28;20499;-44
2023/05/08 04:05:37;;;;;;;30.50;20.33;;;;;;;;;;5062683;28;20408;-44
2023/05/08 04:08:07;;;;;;;30.40;21.37;;;;;;;;;;5061416;28;20524;-44
2023/05/08 04:10:38;;;;;;;28.40;21.40;;;;;;;;;;5061057;28;20422;-46
2023/05/08 04:13:10;;;;;;;30.63;22.27;;;;;;;;;;5061730;28;20461;-45
2023/05/08 04:15:43;;;;;;;34.47;21.77;;;;;;;;;;5058730;28;20923;-44
2023/05/08 04:18:12;;;;;;;30.40;21.53;;;;;;;;;;5057171;28;20463;-45
2023/05/08 04:20:41;;;;;;;25.70;18.40;;;;;;;;;;5063862;28;20799;-46
2023/05/08 04:23:08;;;;;;;29.30;21.70;;;;;;;;;;5058450;28;20431;-44
2023/05/08 04:25:38;;;;;;;29.20;21.07;;;;;;;;;;5062477;28;20884;-45
2023/05/08 04:28:04;;;;;;;29.93;21.43;;;;;;;;;;5070731;28;20849;-44
2023/05/08 04:30:30;;;;;;;32.50;21.47;;;;;;;;;;5063156;28;20431;-44
2023/05/08 04:32:56;;;;;;;32.97;22.77;;;;;;;;;;5049831;28;20982;-45
2023/05/08 04:35:23;;;;;;;29.43;21.10;;;;;;;;;;5050875;28;20393;-44
2023/05/08 04:37:48;;;;;;;34.63;20.97;;;;;;;;;;5050686;28;20396;-45
2023/05/08 04:40:14;;;;;;;30.17;22.57;;;;;;;;;;5050763;28;20804;-44
2023/05/08 04:42:42;;;;;;;26.10;19.43;;;;;;;;;;5050662;28;20394;-45
2023/05/08 04:45:08;;;;;;;28.60;20.70;;;;;;;;;;5050692;28;20919;-45
2023/05/08 04:47:34;;;;;;;27.97;21.43;;;;;;;;;;5050632;28;20405;-45
2023/05/08 04:50:01;;;;;;;28.93;20.30;;;;;;;;;;5050656;28;20396;-45
2023/05/08 04:52:27;;;;;;;29.80;21.20;;;;;;;;;;5050376;28;20453;-46
2023/05/08 04:54:53;;;;;;;29.07;20.67;;;;;;;;;;5050431;28;20520;-45
2023/05/08 04:57:18;;;;;;;34.53;20.53;;;;;;;;;;5050682;28;20417;-44
2023/05/08 04:59:45;;;;;;;29.70;20.10;;;;;;;;;;5049410;28;20439;-44
2023/05/08 05:02:11;;;;;;;26.70;19.70;;;;;;;;;;5050474;28;20491;-44
2023/05/08 05:04:37;;;;;;;26.73;20.17;;;;;;;;;;5049890;28;20457;-45
2023/05/08 05:07:03;;;;;;;25.37;20.07;;;;;;;;;;5049578;28;20401;-44
2023/05/08 05:09:29;;;;;;;24.47;18.53;;;;;;;;;;5049078;28;20433;-44
2023/05/08 05:11:55;;;;;;;27.60;18.23;;;;;;;;;;5049938;28;20559;-44
2023/05/08 05:14:21;;;;;;;22.87;18.37;;;;;;;;;;5049501;28;20514;-44
2023/05/08 05:16:47;;;;;;;28.73;19.20;;;;;;;;;;5050066;28;20497;-45
2023/05/08 05:19:13;;;;;;;21.47;16.27;;;;;;;;;;5050063;28;20559;-44
2023/05/08 05:21:39;;;;;;;25.90;19.27;;;;;;;;;;5050103;28;20372;-46
2023/05/08 05:24:06;;;;;;;26.83;19.50;;;;;;;;;;5049819;28;20859;-45
2023/05/08 05:26:32;;;;;;;25.33;19.07;;;;;;;;;;5049534;28;20368;-44
2023/05/08 05:28:58;;;;;;;23.43;18.37;;;;;;;;;;5050089;28;20376;-46
2023/05/08 05:31:24;;;;;;;20.47;16.70;;;;;;;;;;5047840;28;20431;-44
2023/05/08 05:33:50;;;;;;;24.47;18.50;;;;;;;;;;5049277;28;20466;-45
2023/05/08 05:36:15;;;;;;;27.53;20.43;;;;;;;;;;5049909;28;20412;-44
2023/05/08 05:38:41;;;;;;;26.37;17.73;;;;;;;;;;5049860;28;20416;-44
2023/05/08 05:41:07;;;;;;;21.97;17.40;;;;;;;;;;5049977;28;20891;-44
2023/05/08 05:43:33;;;;;;;20.63;16.47;;;;;;;;;;5049588;28;20951;-44
2023/05/08 05:46:03;;;;;;;19.17;16.53;;;;;;;;;;5049445;28;20527;-46
2023/05/08 05:48:29;;;;;;;19.37;15.47;;;;;;;;;;5029703;28;20785;-45
2023/05/08 05:50:55;;;;;;;19.70;15.97;;;;;;;;;;5029933;28;20379;-44
2023/05/08 05:53:21;;;;;;;25.90;17.03;;;;;;;;;;5029419;28;20469;-44
2023/05/08 05:55:47;;;;;;;22.37;17.13;;;;;;;;;;5029874;28;20419;-44
2023/05/08 05:58:14;;;;;;;30.10;17.77;;;;;;;;;;5029572;28;20404;-44
2023/05/08 06:00:40;;;;;;;23.10;17.50;;;;;;;;;;5032475;28;20492;-44
2023/05/08 06:03:06;;;;;;;26.97;18.07;;;;;;;;;;5048364;27;20410;-44
2023/05/08 06:05:32;;;;;;;28.13;18.90;;;;;;;;;;5049524;28;20403;-44
2023/05/08 06:07:58;;;;;;;23.30;18.13;;;;;;;;;;5049463;28;20381;-44
2023/05/08 06:10:24;;;;;;;24.47;18.30;;;;;;;;;;5049715;28;20417;-44
2023/05/08 06:12:50;;;;;;;20.10;15.77;;;;;;;;;;5049094;28;20428;-44
2023/05/08 06:15:17;;;;;;;19.13;14.17;;;;;;;;;;5049386;28;20887;-44
2023/05/08 06:17:43;;;;;;;22.47;16.80;;;;;;;;;;5049251;28;20928;-44
2023/05/08 06:20:09;;;;;;;21.63;14.60;;;;;;;;;;5049331;28;20879;-44
2023/05/08 06:22:38;;;;;;;19.67;14.80;;;;;;;;;;5049300;28;20377;-45
2023/05/08 06:25:05;;;;;;;16.03;13.20;;;;;;;;;;5049208;28;20401;-44
2023/05/08 06:27:32;;;;;;;15.33;12.87;;;;;;;;;;5047685;28;20470;-44
2023/05/08 06:29:58;;;;;;;18.90;14.67;;;;;;;;;;5047045;28;20434;-44
2023/05/08 06:32:24;;;;;;;12.90;11.30;;;;;;;;;;5048831;28;20419;-45
2023/05/08 06:34:50;;;;;;;11.30;10.10;;;;;;;;;;5049175;28;20485;-44
2023/05/08 06:37:16;;;;;;;15.00;10.83;;;;;;;;;;5045860;28;20427;-44
2023/05/08 06:39:42;;;;;;;12.73;10.80;;;;;;;;;;5053432;28;20384;-44
2023/05/08 06:42:08;;;;;;;13.87;11.27;;;;;;;;;;5058195;28;20428;-46
2023/05/08 06:44:34;;;;;;;12.67;10.40;;;;;;;;;;5051477;28;20426;-44
2023/05/08 06:47:00;;;;;;;11.83;10.63;;;;;;;;;;5058047;28;20991;-43
2023/05/08 06:49:26;;;;;;;14.50;11.30;;;;;;;;;;5052912;28;20417;-44
2023/05/08 06:51:52;;;;;;;14.20;11.07;;;;;;;;;;5060355;28;20928;-44
2023/05/08 06:54:18;;;;;;;14.83;11.37;;;;;;;;;;5054702;28;20468;-44
2023/05/08 06:56:44;;;;;;;15.27;12.43;;;;;;;;;;5057842;28;20384;-44
2023/05/08 06:59:10;;;;;;;16.27;12.67;;;;;;;;;;5058404;28;20395;-45
2023/05/08 07:01:36;;;;;;;16.07;11.57;;;;;;;;;;5055929;28;20432;-44
2023/05/08 07:04:03;;;;;;;14.57;11.07;;;;;;;;;;5062195;27;20455;-44
2023/05/08 07:06:33;;;;;;;13.63;10.60;;;;;;;;;;5056444;28;20475;-44
2023/05/08 07:08:59;;;;;;;14.17;9.97;;;;;;;;;;5059112;28;20410;-44
2023/05/08 07:11:25;;;;;;;11.07;9.17;;;;;;;;;;5054224;28;20417;-44
2023/05/08 07:13:51;;;;;;;16.10;12.57;;;;;;;;;;5059264;27;20479;-45
2023/05/08 07:16:17;;;;;;;12.00;10.63;;;;;;;;;;5057871;28;20376;-44
2023/05/08 07:18:43;;;;;;;13.40;11.63;;;;;;;;;;5056610;28;20392;-44
2023/05/08 07:21:10;;;;;;;12.40;11.07;;;;;;;;;;5058894;28;20501;-44
2023/05/08 07:23:35;;;;;;;17.33;11.00;;;;;;;;;;5056344;28;20415;-44
2023/05/08 07:26:02;;;;;;;12.67;10.63;;;;;;;;;;5057310;28;20414;-45
2023/05/08 07:28:27;;;;;;;16.80;11.97;;;;;;;;;;5055011;28;20408;-44
2023/05/08 07:30:53;;;;;;;14.73;11.97;;;;;;;;;;5055411;28;20422;-44
2023/05/08 07:33:19;;;;;;;12.23;10.30;;;;;;;;;;5056303;28;20472;-45
2023/05/08 07:35:45;;;;;;;13.37;11.43;;;;;;;;;;5054299;28;20441;-44
2023/05/08 07:38:11;;;;;;;11.87;10.57;;;;;;;;;;5057216;28;20402;-45
2023/05/08 07:40:37;;;;;;;13.00;10.93;;;;;;;;;;5055194;28;20467;-47
2023/05/08 07:43:03;;;;;;;15.57;10.97;;;;;;;;;;5057784;28;20479;-44
2023/05/08 07:45:29;;;;;;;13.27;10.07;;;;;;;;;;5059957;28;20497;-45
2023/05/08 07:47:56;;;;;;;14.17;11.43;;;;;;;;;;5060375;28;20411;-45
2023/05/08 07:50:23;;;;;;;15.40;11.60;;;;;;;;;;5057122;28;20917;-45
2023/05/08 07:52:49;;;;;;;13.00;10.00;;;;;;;;;;5055444;28;20409;-46
2023/05/08 07:55:15;;;;;;;13.97;10.87;;;;;;;;;;5063146;28;20418;-45
2023/05/08 07:57:42;;;;;;;15.20;10.67;;;;;;;;;;5062024;28;20427;-45
2023/05/08 08:00:09;;;;;;;10.60;9.50;;;;;;;;;;5061425;27;20427;-44
2023/05/08 08:02:35;;;;;;;11.77;9.70;;;;;;;;;;5060825;27;20421;-45
2023/05/08 08:05:01;;;;;;;9.23;7.83;;;;;;;;;;5061946;28;20486;-45
2023/05/08 08:07:27;;;;;;;8.67;7.77;;;;;;;;;;5057390;28;20422;-45
2023/05/08 08:09:53;;;;;;;8.03;7.23;;;;;;;;;;5062287;27;20417;-45
2023/05/08 08:12:20;;;;;;;9.97;8.77;;;;;;;;;;5061061;28;20928;-45
2023/05/08 08:14:46;;;;;;;11.00;7.37;;;;;;;;;;5058836;28;20441;-45
2023/05/08 08:17:12;;;;;;;8.33;7.47;;;;;;;;;;5061790;28;20377;-45
2023/05/08 08:19:38;;;;;;;10.07;8.03;;;;;;;;;;5059048;28;20463;-45
2023/05/08 08:22:04;;;;;;;10.43;7.90;;;;;;;;;;5060172;28;20463;-45
2023/05/08 08:24:30;;;;;;;11.07;8.83;;;;;;;;;;5058865;28;20922;-45
2023/05/08 08:26:56;;;;;;;9.93;8.83;;;;;;;;;;5064741;28;20385;-45
2023/05/08 08:29:23;;;;;;;9.90;8.00;;;;;;;;;;5062536;28;20409;-45
2023/05/08 08:31:48;;;;;;;13.50;10.60;;;;;;;;;;5051012;27;20529;-46
2023/05/08 08:34:14;;;;;;;9.40;7.50;;;;;;;;;;5050382;28;20907;-46
2023/05/08 08:36:40;;;;;;;7.23;6.50;;;;;;;;;;5032925;28;20431;-45
2023/05/08 08:39:06;;;;;;;8.27;7.07;;;;;;;;;;5031030;28;20807;-47
2023/05/08 08:41:32;;;;;;;9.47;8.20;;;;;;;;;;5030843;28;20834;-45
2023/05/08 08:43:58;;;;;;;7.97;6.90;;;;;;;;;;5030704;28;20432;-44
2023/05/08 08:46:25;;;;;;;8.47;6.60;;;;;;;;;;5031146;28;20408;-45
2023/05/08 08:48:53;;;;;;;10.13;7.80;;;;;;;;;;5030787;28;20759;-45
2023/05/08 08:51:22;;;;;;;7.20;6.50;;;;;;;;;;5030818;28;20772;-45
2023/05/08 08:53:50;;;;;;;8.33;6.80;;;;;;;;;;5030350;28;20465;-45
2023/05/08 08:56:16;;;;;;;9.50;7.40;;;;;;;;;;5030719;28;20414;-46
2023/05/08 08:58:49;;;;;;;9.57;7.07;;;;;;;;;;5030544;28;20889;-47
2023/05/08 09:01:17;;;;;;;7.80;6.80;;;;;;;;;;5046029;28;20439;-45
2023/05/08 09:03:43;;;;;;;9.20;7.47;;;;;;;;;;5049644;28;20877;-45
2023/05/08 09:06:09;;;;;;;8.93;7.23;;;;;;;;;;5043899;28;20984;-46
2023/05/08 09:08:35;;;;;;;9.10;7.53;;;;;;;;;;5039378;28;20478;-47
2023/05/08 09:11:02;;;;;;;6.93;6.23;;;;;;;;;;5030498;28;20404;-45
2023/05/08 09:13:30;;;;;;;9.60;7.30;;;;;;;;;;5028610;28;20455;-45
2023/05/08 09:16:00;;;;;;;10.27;7.73;;;;;;;;;;5029708;28;20866;-44
2023/05/08 09:18:26;;;;;;;7.50;6.73;;;;;;;;;;5029573;28;20428;-45
2023/05/08 09:20:52;;;;;;;8.97;7.63;;;;;;;;;;5029479;28;21052;-45
2023/05/08 09:23:18;;;;;;;9.23;7.40;;;;;;;;;;5029583;28;20513;-48
2023/05/08 09:25:45;;;;;;;8.53;5.73;;;;;;;;;;5028998;28;20911;-45
2023/05/08 09:28:22;;;;;;;7.00;6.30;;;;;;;;;;5030197;28;20413;-46
2023/05/08 09:30:49;;;;;;;8.43;7.13;;;;;;;;;;5038780;28;20431;-46
2023/05/08 09:33:15;;;;;;;9.40;6.83;;;;;;;;;;5048505;27;20475;-46
2023/05/08 09:35:41;;;;;;;8.27;7.03;;;;;;;;;;5049706;28;20400;-46
2023/05/08 09:38:07;;;;;;;10.00;6.27;;;;;;;;;;5050192;28;21178;-45
2023/05/08 09:40:33;;;;;;;6.47;5.87;;;;;;;;;;5049979;28;20892;-45
2023/05/08 09:43:11;;;;;;;6.90;6.23;;;;;;;;;;5049597;28;20473;-45
2023/05/08 09:45:38;;;;;;;5.90;5.30;;;;;;;;;;5049836;28;20775;-45
2023/05/08 09:48:04;;;;;;;7.13;5.83;;;;;;;;;;5049588;28;20412;-47
2023/05/08 09:50:31;;;;;;;5.57;5.07;;;;;;;;;;5049772;28;20416;-47
2023/05/08 09:52:57;;;;;;;6.63;5.40;;;;;;;;;;5049320;28;20407;-45
2023/05/08 09:55:23;;;;;;;6.20;4.50;;;;;;;;;;5049790;28;20415;-45
2023/05/08 09:57:56;;;;;;;5.27;4.77;;;;;;;;;;5049551;28;20414;-45
2023/05/08 10:00:23;;;;;;;6.40;5.17;;;;;;;;;;5048491;28;20420;-46
2023/05/08 10:02:55;;;;;;;7.47;6.10;;;;;;;;;;5048958;28;20404;-45
2023/05/08 10:05:41;;;;;;;5.60;4.90;;;;;;;;;;5048284;28;20425;-45
2023/05/08 10:08:20;;;;;;;5.67;5.17;;;;;;;;;;5049723;28;20411;-45
2023/05/08 10:10:46;;;;;;;5.83;5.00;;;;;;;;;;5049443;28;20420;-47
2023/05/08 10:13:13;;;;;;;7.10;6.10;;;;;;;;;;5047428;28;20557;-47
2023/05/08 10:15:41;;;;;;;4.97;4.57;;;;;;;;;;5049193;28;20409;-44
2023/05/08 10:18:07;;;;;;;6.20;5.40;;;;;;;;;;5049334;28;20412;-46
2023/05/08 10:20:37;;;;;;;7.00;6.17;;;;;;;;;;5049095;28;20453;-46
2023/05/08 10:23:03;;;;;;;6.60;5.50;;;;;;;;;;5041095;28;20423;-44
2023/05/08 10:25:34;;;;;;;7.50;6.13;;;;;;;;;;5047943;28;20427;-45
2023/05/08 10:28:06;;;;;;;6.30;5.70;;;;;;;;;;5047183;28;20412;-44
2023/05/08 10:30:33;;;;;;;7.40;6.27;;;;;;;;;;5047263;28;20446;-46
2023/05/08 10:33:02;;;;;;;8.03;6.73;;;;;;;;;;5047365;28;20410;-45
2023/05/08 10:35:30;;;;;;;4.77;4.33;;;;;;;;;;5044816;28;20424;-47
2023/05/08 10:37:56;;;;;;;6.50;5.60;;;;;;;;;;5027911;28;20413;-44
2023/05/08 10:40:22;;;;;;;10.27;5.90;;;;;;;;;;5029010;28;20430;-44
2023/05/08 10:42:48;;;;;;;7.43;5.63;;;;;;;;;;5028790;28;20903;-44
2023/05/08 10:45:14;;;;;;;5.67;5.13;;;;;;;;;;5029233;28;20397;-44
2023/05/08 10:47:43;;;;;;;6.20;5.40;;;;;;;;;;5029011;28;20380;-44
2023/05/08 10:50:15;;;;;;;9.13;5.30;;;;;;;;;;5028895;28;20421;-44
2023/05/08 10:52:45;;;;;;;7.87;5.43;;;;;;;;;;5028634;28;20483;-44
2023/05/08 10:55:29;;;;;;;4.97;4.50;;;;;;;;;;5028841;28;20781;-44
2023/05/08 10:58:05;;;;;;;6.23;5.63;;;;;;;;;;5029145;28;20503;-45
2023/05/08 11:00:51;;;;;;;9.80;5.63;;;;;;;;;;5028908;28;20419;-44
2023/05/08 11:03:18;;;;;;;6.50;5.90;;;;;;;;;;5021894;28;20476;-44
2023/05/08 11:05:48;;;;;;;5.80;5.20;;;;;;;;;;5048969;28;20403;-44
2023/05/08 11:08:15;;;;;;;5.70;5.17;;;;;;;;;;5048744;28;20401;-44
2023/05/08 11:10:41;;;;;;;5.67;5.03;;;;;;;;;;5049070;28;20956;-44
2023/05/08 11:13:08;;;;;;;5.50;4.50;;;;;;;;;;5048280;28;20454;-44
2023/05/08 11:15:37;;;;;;;5.10;4.60;;;;;;;;;;5048363;28;20966;-44
2023/05/08 11:18:05;;;;;;;7.73;4.87;;;;;;;;;;5048519;28;20372;-44
2023/05/08 11:20:38;;;;;;;4.93;4.43;;;;;;;;;;5048464;28;20474;-45
2023/05/08 11:23:20;;;;;;;7.90;4.63;;;;;;;;;;5048247;28;20404;-44
2023/05/08 11:25:46;;;;;;;6.27;4.60;;;;;;;;;;5052102;28;20997;-44
2023/05/08 11:28:15;;;;;;;5.20;4.70;;;;;;;;;;5051892;28;20405;-44
2023/05/08 11:30:43;;;;;;;4.73;4.23;;;;;;;;;;5051908;28;20859;-45
2023/05/08 11:33:09;;;;;;;8.33;6.80;;;;;;;;;;5050631;28;20453;-46
2023/05/08 11:35:38;;;;;;;5.57;4.40;;;;;;;;;;5051746;28;20531;-44
2023/05/08 11:38:11;;;;;;;4.73;4.33;;;;;;;;;;5050817;28;20443;-45
2023/05/08 11:40:46;;;;;;;4.30;3.90;;;;;;;;;;5052209;28;20857;-44
2023/05/08 11:43:28;;;;;;;4.90;4.40;;;;;;;;;;5051403;28;20988;-46
2023/05/08 11:45:59;;;;;;;5.40;4.33;;;;;;;;;;5043681;28;20455;-44
2023/05/08 11:48:25;;;;;;;4.10;3.70;;;;;;;;;;5030410;28;20418;-44
2023/05/08 11:50:51;;;;;;;6.87;5.07;;;;;;;;;;5030668;28;20421;-46
2023/05/08 11:53:17;;;;;;;4.83;4.33;;;;;;;;;;5028672;28;20561;-46
2023/05/08 11:55:47;;;;;;;5.30;4.40;;;;;;;;;;5031870;28;20783;-44
2023/05/08 11:58:13;;;;;;;7.70;4.93;;;;;;;;;;5030466;28;20485;-44
2023/05/08 12:00:43;;;;;;;5.03;4.53;;;;;;;;;;5031252;28;20475;-44
2023/05/08 12:03:11;;;;;;;5.70;4.87;;;;;;;;;;5031245;28;20396;-46
2023/05/08 12:05:37;;;;;;;5.97;4.40;;;;;;;;;;5045288;28;20437;-45
2023/05/08 12:08:05;;;;;;;6.20;4.70;;;;;;;;;;5051364;28;20402;-46
2023/05/08 12:10:31;;;;;;;6.40;5.03;;;;;;;;;;5051308;28;20405;-46
2023/05/08 12:12:57;;;;;;;4.50;4.10;;;;;;;;;;5050887;28;20910;-46
2023/05/08 12:15:23;;;;;;;6.90;4.67;;;;;;;;;;5051124;28;20405;-44
2023/05/08 12:18:00;;;;;;;5.57;5.07;;;;;;;;;;5050161;28;20419;-45
2023/05/08 12:20:26;;;;;;;5.23;4.73;;;;;;;;;;5051086;28;20421;-45
2023/05/08 12:22:52;;;;;;;4.50;4.10;;;;;;;;;;5050974;28;20895;-45
2023/05/08 12:25:19;;;;;;;5.17;4.67;;;;;;;;;;5051128;28;20409;-45
2023/05/08 12:27:45;;;;;;;5.93;5.23;;;;;;;;;;5049706;28;20500;-46
2023/05/08 12:30:12;;;;;;;6.60;4.27;;;;;;;;;;5050937;28;20903;-47
2023/05/08 12:32:40;;;;;;;6.33;5.40;;;;;;;;;;5050722;28;20396;-45
2023/05/08 12:35:07;;;;;;;6.93;4.53;;;;;;;;;;5047358;28;20482;-45
2023/05/08 12:37:33;;;;;;;4.60;4.20;;;;;;;;;;5050614;27;20422;-45
2023/05/08 12:39:59;;;;;;;5.20;4.60;;;;;;;;;;5050830;28;20760;-45
2023/05/08 12:42:43;;;;;;;9.30;6.93;;;;;;;;;;5050614;28;20401;-45
2023/05/08 12:45:15;;;;;;;5.13;4.40;;;;;;;;;;5050183;28;20819;-45
2023/05/08 12:47:44;;;;;;;5.70;5.10;;;;;;;;;;5050581;28;20486;-45
2023/05/08 12:50:11;;;;;;;6.57;5.60;;;;;;;;;;5049795;28;20416;-47
2023/05/08 12:52:37;;;;;;;7.30;6.33;;;;;;;;;;5050436;28;20438;-45
2023/05/08 12:55:03;;;;;;;5.67;4.07;;;;;;;;;;5050452;28;20500;-46
2023/05/08 12:57:29;;;;;;;6.80;4.47;;;;;;;;;;5053544;28;20804;-49
2023/05/08 13:00:03;;;;;;;7.67;5.13;;;;;;;;;;5053755;28;20907;-47
2023/05/08 13:02:29;;;;;;;8.10;7.30;;;;;;;;;;5054336;28;20398;-47
2023/05/08 13:04:55;;;;;;;5.70;5.10;;;;;;;;;;5053480;28;20460;-49
2023/05/08 13:07:21;;;;;;;6.23;5.50;;;;;;;;;;5053492;28;20667;-50
2023/05/08 13:10:03;;;;;;;6.53;4.77;;;;;;;;;;5054638;28;20401;-48
2023/05/08 13:12:30;;;;;;;11.50;7.17;;;;;;;;;;5053761;28;20410;-48
2023/05/08 13:14:56;;;;;;;5.33;4.87;;;;;;;;;;5053949;28;20461;-50
2023/05/08 13:17:22;;;;;;;5.77;5.07;;;;;;;;;;5053971;28;20416;-48
2023/05/08 13:19:48;;;;;;;5.90;5.30;;;;;;;;;;5054401;28;20418;-49
2023/05/08 13:22:14;;;;;;;8.03;6.87;;;;;;;;;;5053934;28;20410;-48
2023/05/08 13:24:40;;;;;;;5.70;5.20;;;;;;;;;;5053911;28;20418;-48
2023/05/08 13:27:06;;;;;;;7.90;5.20;;;;;;;;;;5054176;28;20749;-47
2023/05/08 13:29:32;;;;;;;6.50;5.13;;;;;;;;;;5054164;28;20442;-47
2023/05/08 13:31:58;;;;;;;7.57;6.63;;;;;;;;;;5051417;27;20425;-47
2023/05/08 13:34:24;;;;;;;8.50;5.90;;;;;;;;;;5053194;28;20472;-49
2023/05/08 13:36:50;;;;;;;6.20;5.60;;;;;;;;;;5053099;28;20781;-49
2023/05/08 13:39:16;;;;;;;7.03;6.33;;;;;;;;;;5053191;28;20398;-49
2023/05/08 13:41:42;;;;;;;6.57;5.97;;;;;;;;;;5053161;28;20402;-49
2023/05/08 13:44:08;;;;;;;7.30;5.83;;;;;;;;;;5051627;28;20433;-49
2023/05/08 13:46:34;;;;;;;6.23;5.63;;;;;;;;;;5052739;28;20424;-48
2023/05/08 13:49:00;;;;;;;8.80;5.10;;;;;;;;;;5052774;28;20848;-49
2023/05/08 13:51:26;;;;;;;7.00;6.30;;;;;;;;;;5052384;28;20406;-47
2023/05/08 13:53:51;;;;;;;7.63;6.63;;;;;;;;;;5052070;28;20449;-48
2023/05/08 13:56:17;;;;;;;10.43;6.03;;;;;;;;;;5052592;28;20409;-49
2023/05/08 13:58:43;;;;;;;6.13;5.60;;;;;;;;;;5052414;28;20454;-49
2023/05/08 14:01:09;;;;;;;7.70;6.70;;;;;;;;;;5049299;28;20431;-48
2023/05/08 14:03:35;;;;;;;8.17;6.40;;;;;;;;;;5052440;28;20424;-48
2023/05/08 14:06:01;;;;;;;7.30;6.60;;;;;;;;;;5052809;28;20409;-50
2023/05/08 14:08:27;;;;;;;6.53;5.83;;;;;;;;;;5052286;28;20412;-48
2023/05/08 14:10:53;;;;;;;8.57;7.03;;;;;;;;;;5052673;28;20442;-50
2023/05/08 14:13:19;;;;;;;7.63;6.83;;;;;;;;;;5052236;28;20548;-50
2023/05/08 14:15:45;;;;;;;7.27;6.53;;;;;;;;;;5052306;28;20396;-49
2023/05/08 14:18:11;;;;;;;7.37;6.53;;;;;;;;;;5051679;28;20397;-49
2023/05/08 14:20:37;;;;;;;8.07;6.63;;;;;;;;;;5051965;28;20818;-50
2023/05/08 14:23:03;;;;;;;7.07;6.00;;;;;;;;;;5051583;28;20413;-48
2023/05/08 14:25:30;;;;;;;8.00;6.73;;;;;;;;;;5052463;28;20431;-48
2023/05/08 14:27:57;;;;;;;12.13;6.33;;;;;;;;;;5052157;28;20519;-46
2023/05/08 14:30:23;;;;;;;11.80;8.73;;;;;;;;;;5049912;28;20425;-48
2023/05/08 14:32:49;;;;;;;7.57;6.40;;;;;;;;;;5031231;28;20398;-48